Hauptseite
METAR-TAF:

METAR-TAF

Flughäfen :

Flugplatz Illesheim

Illesheim, Deutschland

Breite: 49-28N, Länge: 010-23E, Höhe: 325 m

Beobachtung

Neuester Wetterbericht von vor 1 Stunde und 0 Minuten, um 17:56 UTC
Windstille
Temperatur 4°C
Luftfeuchtigkeit 100%
Luftdruck 1021 hPa
Sichtweite 10 km oder mehr
Durchbrochene Bewölkung in der Höhe von 2400 ft
Geschlossene Wolkendecke in der Höhe von 3000 ft

METAR: ETIK 181756Z AUTO 00000KT 9999 BKN024 OVC030 04/04 A3015 RMK AO2 RAB18E28 SLP226 P0000 60003 T00420036 10083 20025 52024 $

Zeit: 19:56 (18:56 UTC)


TAF: fehlend

Wetterbeobachtungen und Prognosen von mehr als 4000 Flughäfen (METAR und TAF Bericht).

Die verfügbaren Stationen werden durch gelbe und rote Markierungen auf der Karte dargestellt.

Führen Sie die Maus auf sie, um den Namen der Station zu sehen.

Darauf klicken, um die Beobachtung von Wetterbeobachtungen und Prognosen zu sehen.

Um die Karte zu ändern : klicken Sie auf den grünen Tasten mit einem schwarzen Kreuz Zum Vergrößern, auf den grünen Button mit einem Gedankenstrich zu verkleinern, oder auf die grünen Pfeile für benachbarte Karten.


METAR-TAF: